Terminal Aerodrome Forecast
Issued by NWS

Home | Current Version | Previous Version | Text Only | Print | Product List | Glossary On
Versions: 1 2 3 4 5 6 7 8 9 10 11 12 13 14 15 16 17 18 19 20 21
000
FTUS41 KBUF 232322
TAFIAG
TAF
KIAG 232322Z 2400/2424 32006KT P6SM FEW080
     FM240200 VRB03KT P6SM FEW250
     FM241400 15005KT P6SM SCT150
     FM241700 19006KT P6SM BKN110=

USA.gov is the U.S. government's official web portal to all federal, state and local government web resources and services.